Terminal Aerodrome Forecast
Issued by NWS

Home | Current Version | Previous Version | Text Only | Print | Product List | Glossary Off
Versions: 1 2 3 4 5 6 7 8 9 10 11 12 13 14 15 16 17 18 19 20 21 22 23 24 25 26

000
FTUS45 KGGW 181100
TAFOLF
TAF
KOLF 181122Z 1812/1912 VRB03KT P6SM SCT200
     FM181500 31013KT P6SM BKN100
     FM181700 34020G30KT P6SM BKN100
     FM190300 32011KT P6SM SCT250=

USA.gov is the U.S. government's official web portal to all federal, state and local government web resources and services.